Aérodrome :
LOGIN :

S'inscrire | Disclaimer

   EN    FR    IT 

 










Légende :    VFR   VFR Marginal   IFR   IFR Intensif   IFR Très Intensif
Visi : 
Plafond : 
>= 8 km
>= 3000ft
5 à 8 km
1000 à 3000 ft
1500m à 5 km
500 à 1000 ft
800 à 1500m
200 à 500 ft
< 800m
< 200 ft
Symboles :   Orages  Brouillard  Fortes neiges  Fortes précipitations  Vent > 20 kt
SIGMETs :   Divers  Orages  Givrage  Turbulence  Onde Orograph.  Cendres Volcan.






- Altitude de l'aérodrome : 12 ft
- Code IATA : NCE


LFMN - Nice

DERNIER METAR :
  • 281300Z AUTO 15005KT CAVOK 22/13 Q1023 TEMPO FEW060TCU

METARs EXPIRÉS :
  • 281230Z AUTO 12005KT CAVOK 21/14 Q1023 TEMPO FEW060TCU
  • 281200Z AUTO 12005KT CAVOK 21/14 Q1023 TEMPO FEW060TCU
  • 281130Z AUTO 10006KT CAVOK 21/13 Q1023 TEMPO FEW060TCU
  • 281100Z AUTO 12007KT CAVOK 21/13 Q1024 NOSIG
  • 281030Z AUTO 12007KT CAVOK 21/13 Q1024 NOSIG

TAF TAF LFMN
Valide du 28 à 09h jusqu'au 29 à 15h UTC


280800Z 2809/2915 09010KT CAVOK
BECMG 2809/2811 17008KT
TEMPO 2813/2819 FEW060TCU
PROB40
TEMPO 2815/2819 SHRA SCT060TCU
PROB30
TEMPO 2815/2819 33015G25KT TSRA FEW060CB
BECMG 2819/2821 33010KT CAVOK
TEMPO 2900/2907 08015KT
PROB30
TEMPO 2900/2907 BKN012
BECMG 2907/2910 10015KT SCT040
PROB40
TEMPO 2910/2913 11020G30KT
ATIS : +33 4 93 17 21 16



MET'MAP, la Météo Aéronautique d'un coup d'oeil ! - Copyright ORBIFLY Décembre 2007 - Disclaimer

ORBIFLY MET'MAP TEAM :

Programmation & Développement : Alexandra Zaïnal
Sur une idée originale de : Baudouin d'Aumeries
Assistance à la programmation : Marc-Olivier Méhu
Soutien technique & logistique : Manuel Goepfert

Contact : metmap@orbifly.com




SOURCES & CREDITS :

   NOAA